sensor_id;sensor_type;location;lat;lon;timestamp;P1;durP1;ratioP1;P2;durP2;ratioP2
7929;SDS011;4010;42.698;23.124;2023-04-03T00:01:31;1.03;;;0.93;;
7929;SDS011;4010;42.698;23.124;2023-04-03T00:03:58;1.00;;;1.00;;
7929;SDS011;4010;42.698;23.124;2023-04-03T00:06:25;0.90;;;0.80;;
7929;SDS011;4010;42.698;23.124;2023-04-03T00:08:53;1.17;;;1.00;;
7929;SDS011;4010;42.698;23.124;2023-04-03T00:11:20;1.77;;;1.20;;
7929;SDS011;4010;42.698;23.124;2023-04-03T00:13:47;1.10;;;1.00;;
7929;SDS011;4010;42.698;23.124;2023-04-03T00:16:13;1.13;;;1.03;;
7929;SDS011;4010;42.698;23.124;2023-04-03T00:18:40;1.20;;;0.90;;
7929;SDS011;4010;42.698;23.124;2023-04-03T00:21:08;1.23;;;1.10;;
7929;SDS011;4010;42.698;23.124;2023-04-03T00:23:35;0.73;;;0.73;;
7929;SDS011;4010;42.698;23.124;2023-04-03T00:26:04;0.80;;;0.80;;
7929;SDS011;4010;42.698;23.124;2023-04-03T00:28:30;1.10;;;1.00;;
7929;SDS011;4010;42.698;23.124;2023-04-03T00:30:58;0.90;;;0.90;;
7929;SDS011;4010;42.698;23.124;2023-04-03T00:33:27;0.80;;;0.80;;
7929;SDS011;4010;42.698;23.124;2023-04-03T00:35:54;0.83;;;0.80;;
7929;SDS011;4010;42.698;23.124;2023-04-03T00:38:21;0.80;;;0.80;;
7929;SDS011;4010;42.698;23.124;2023-04-03T00:40:48;1.10;;;1.00;;
7929;SDS011;4010;42.698;23.124;2023-04-03T00:43:17;1.37;;;0.93;;
7929;SDS011;4010;42.698;23.124;2023-04-03T00:45:47;1.17;;;1.07;;
7929;SDS011;4010;42.698;23.124;2023-04-03T00:48:15;1.40;;;1.17;;
7929;SDS011;4010;42.698;23.124;2023-04-03T00:50:46;1.80;;;1.33;;
7929;SDS011;4010;42.698;23.124;2023-04-03T00:53:15;1.40;;;1.30;;
7929;SDS011;4010;42.698;23.124;2023-04-03T00:55:47;0.90;;;0.90;;
7929;SDS011;4010;42.698;23.124;2023-04-03T00:58:17;1.10;;;0.90;;
7929;SDS011;4010;42.698;23.124;2023-04-03T01:00:46;0.70;;;0.70;;
7929;SDS011;4010;42.698;23.124;2023-04-03T01:03:18;0.90;;;0.90;;
7929;SDS011;4010;42.698;23.124;2023-04-03T01:05:45;1.00;;;1.00;;
7929;SDS011;4010;42.698;23.124;2023-04-03T01:08:12;1.10;;;1.00;;
7929;SDS011;4010;42.698;23.124;2023-04-03T01:10:38;0.90;;;0.90;;
7929;SDS011;4010;42.698;23.124;2023-04-03T01:13:18;0.90;;;0.90;;
7929;SDS011;4010;42.698;23.124;2023-04-03T01:15:47;1.10;;;0.70;;
7929;SDS011;4010;42.698;23.124;2023-04-03T01:18:13;0.80;;;0.80;;
7929;SDS011;4010;42.698;23.124;2023-04-03T01:21:05;1.33;;;1.20;;
7929;SDS011;4010;42.698;23.124;2023-04-03T01:23:55;0.70;;;0.70;;
7929;SDS011;4010;42.698;23.124;2023-04-03T01:26:48;0.90;;;0.90;;
7929;SDS011;4010;42.698;23.124;2023-04-03T01:29:16;1.47;;;0.90;;
7929;SDS011;4010;42.698;23.124;2023-04-03T01:31:55;2.40;;;1.10;;
7929;SDS011;4010;42.698;23.124;2023-04-03T01:34:23;0.80;;;0.77;;
7929;SDS011;4010;42.698;23.124;2023-04-03T01:36:50;1.40;;;1.30;;
7929;SDS011;4010;42.698;23.124;2023-04-03T01:39:18;1.37;;;1.10;;
7929;SDS011;4010;42.698;23.124;2023-04-03T01:41:45;0.87;;;0.87;;
7929;SDS011;4010;42.698;23.124;2023-04-03T01:44:12;1.13;;;1.10;;
7929;SDS011;4010;42.698;23.124;2023-04-03T01:46:39;1.13;;;1.03;;
7929;SDS011;4010;42.698;23.124;2023-04-03T01:49:08;1.47;;;1.37;;
7929;SDS011;4010;42.698;23.124;2023-04-03T01:51:35;1.40;;;1.23;;
7929;SDS011;4010;42.698;23.124;2023-04-03T01:54:02;1.80;;;1.20;;
7929;SDS011;4010;42.698;23.124;2023-04-03T01:56:29;1.23;;;1.13;;
7929;SDS011;4010;42.698;23.124;2023-04-03T01:58:56;1.70;;;1.13;;
7929;SDS011;4010;42.698;23.124;2023-04-03T02:01:22;1.37;;;1.10;;
7929;SDS011;4010;42.698;23.124;2023-04-03T02:03:50;1.97;;;1.40;;
7929;SDS011;4010;42.698;23.124;2023-04-03T02:06:18;1.03;;;1.03;;
7929;SDS011;4010;42.698;23.124;2023-04-03T02:08:45;2.00;;;1.30;;
7929;SDS011;4010;42.698;23.124;2023-04-03T02:11:12;1.23;;;1.13;;
7929;SDS011;4010;42.698;23.124;2023-04-03T02:13:38;1.13;;;1.10;;
7929;SDS011;4010;42.698;23.124;2023-04-03T02:16:06;1.60;;;1.40;;
7929;SDS011;4010;42.698;23.124;2023-04-03T02:18:34;1.57;;;1.47;;
7929;SDS011;4010;42.698;23.124;2023-04-03T02:21:01;1.50;;;1.40;;
7929;SDS011;4010;42.698;23.124;2023-04-03T02:23:29;1.30;;;1.10;;
7929;SDS011;4010;42.698;23.124;2023-04-03T02:26:02;1.37;;;1.23;;
7929;SDS011;4010;42.698;23.124;2023-04-03T02:30:57;1.80;;;1.30;;
7929;SDS011;4010;42.698;23.124;2023-04-03T02:33:24;1.50;;;1.40;;
7929;SDS011;4010;42.698;23.124;2023-04-03T02:35:52;2.70;;;1.30;;
7929;SDS011;4010;42.698;23.124;2023-04-03T02:38:19;1.30;;;1.20;;
7929;SDS011;4010;42.698;23.124;2023-04-03T02:40:47;1.40;;;1.30;;
7929;SDS011;4010;42.698;23.124;2023-04-03T02:43:15;0.90;;;0.90;;
7929;SDS011;4010;42.698;23.124;2023-04-03T02:45:41;1.10;;;1.00;;
7929;SDS011;4010;42.698;23.124;2023-04-03T02:48:08;2.37;;;1.40;;
7929;SDS011;4010;42.698;23.124;2023-04-03T02:50:35;1.40;;;1.30;;
7929;SDS011;4010;42.698;23.124;2023-04-03T02:53:01;1.77;;;1.67;;
7929;SDS011;4010;42.698;23.124;2023-04-03T02:55:28;2.20;;;2.00;;
7929;SDS011;4010;42.698;23.124;2023-04-03T02:57:56;2.23;;;1.70;;
7929;SDS011;4010;42.698;23.124;2023-04-03T03:00:23;4.87;;;2.87;;
7929;SDS011;4010;42.698;23.124;2023-04-03T03:02:49;3.93;;;2.93;;
7929;SDS011;4010;42.698;23.124;2023-04-03T03:05:16;4.03;;;2.67;;
7929;SDS011;4010;42.698;23.124;2023-04-03T03:07:43;2.33;;;2.07;;
7929;SDS011;4010;42.698;23.124;2023-04-03T03:10:09;2.27;;;2.03;;
7929;SDS011;4010;42.698;23.124;2023-04-03T03:12:36;2.60;;;2.20;;
7929;SDS011;4010;42.698;23.124;2023-04-03T03:15:05;2.93;;;2.60;;
7929;SDS011;4010;42.698;23.124;2023-04-03T03:17:32;3.00;;;2.43;;
7929;SDS011;4010;42.698;23.124;2023-04-03T03:19:59;3.73;;;2.37;;
7929;SDS011;4010;42.698;23.124;2023-04-03T03:22:26;3.67;;;2.50;;
7929;SDS011;4010;42.698;23.124;2023-04-03T03:24:54;3.00;;;2.33;;
7929;SDS011;4010;42.698;23.124;2023-04-03T03:27:21;2.97;;;2.57;;
7929;SDS011;4010;42.698;23.124;2023-04-03T03:29:47;2.47;;;2.27;;
7929;SDS011;4010;42.698;23.124;2023-04-03T03:32:15;3.07;;;2.13;;
7929;SDS011;4010;42.698;23.124;2023-04-03T03:34:42;2.20;;;2.00;;
7929;SDS011;4010;42.698;23.124;2023-04-03T03:37:09;2.93;;;2.30;;
7929;SDS011;4010;42.698;23.124;2023-04-03T03:39:35;3.77;;;2.47;;
7929;SDS011;4010;42.698;23.124;2023-04-03T03:42:02;2.30;;;2.10;;
7929;SDS011;4010;42.698;23.124;2023-04-03T03:44:29;1.73;;;1.50;;
7929;SDS011;4010;42.698;23.124;2023-04-03T03:46:56;2.40;;;1.87;;
7929;SDS011;4010;42.698;23.124;2023-04-03T03:49:24;1.87;;;1.67;;
7929;SDS011;4010;42.698;23.124;2023-04-03T03:51:50;1.90;;;1.67;;
7929;SDS011;4010;42.698;23.124;2023-04-03T03:54:17;2.00;;;1.57;;
7929;SDS011;4010;42.698;23.124;2023-04-03T03:56:44;1.90;;;1.53;;
7929;SDS011;4010;42.698;23.124;2023-04-03T03:59:11;1.70;;;1.47;;
7929;SDS011;4010;42.698;23.124;2023-04-03T04:01:38;1.93;;;1.63;;
7929;SDS011;4010;42.698;23.124;2023-04-03T04:04:04;1.90;;;1.70;;
7929;SDS011;4010;42.698;23.124;2023-04-03T04:06:32;1.80;;;1.70;;
7929;SDS011;4010;42.698;23.124;2023-04-03T04:08:59;1.60;;;1.50;;
7929;SDS011;4010;42.698;23.124;2023-04-03T04:11:26;1.80;;;1.53;;
7929;SDS011;4010;42.698;23.124;2023-04-03T04:13:53;1.87;;;1.60;;
7929;SDS011;4010;42.698;23.124;2023-04-03T04:16:20;2.17;;;1.47;;
7929;SDS011;4010;42.698;23.124;2023-04-03T04:18:46;2.00;;;1.90;;
7929;SDS011;4010;42.698;23.124;2023-04-03T04:21:13;1.50;;;1.40;;
7929;SDS011;4010;42.698;23.124;2023-04-03T04:23:41;2.23;;;1.43;;
7929;SDS011;4010;42.698;23.124;2023-04-03T04:26:11;1.60;;;1.50;;
7929;SDS011;4010;42.698;23.124;2023-04-03T04:28:38;2.30;;;1.80;;
7929;SDS011;4010;42.698;23.124;2023-04-03T04:31:04;4.97;;;2.80;;
7929;SDS011;4010;42.698;23.124;2023-04-03T04:33:31;6.93;;;3.10;;
7929;SDS011;4010;42.698;23.124;2023-04-03T04:35:58;3.17;;;2.20;;
7929;SDS011;4010;42.698;23.124;2023-04-03T04:38:24;5.03;;;2.90;;
7929;SDS011;4010;42.698;23.124;2023-04-03T04:40:52;5.00;;;2.90;;
7929;SDS011;4010;42.698;23.124;2023-04-03T04:43:19;3.20;;;2.37;;
7929;SDS011;4010;42.698;23.124;2023-04-03T04:45:46;4.07;;;2.10;;
7929;SDS011;4010;42.698;23.124;2023-04-03T04:48:13;5.93;;;2.73;;
7929;SDS011;4010;42.698;23.124;2023-04-03T04:50:39;3.37;;;2.00;;
7929;SDS011;4010;42.698;23.124;2023-04-03T04:53:06;3.40;;;2.20;;
7929;SDS011;4010;42.698;23.124;2023-04-03T04:55:33;2.83;;;2.37;;
7929;SDS011;4010;42.698;23.124;2023-04-03T04:58:01;2.30;;;1.80;;
7929;SDS011;4010;42.698;23.124;2023-04-03T05:00:28;3.80;;;1.90;;
7929;SDS011;4010;42.698;23.124;2023-04-03T05:02:54;2.30;;;2.00;;
7929;SDS011;4010;42.698;23.124;2023-04-03T05:05:21;3.03;;;2.20;;
7929;SDS011;4010;42.698;23.124;2023-04-03T05:07:48;2.13;;;1.80;;
7929;SDS011;4010;42.698;23.124;2023-04-03T05:10:15;3.20;;;2.17;;
7929;SDS011;4010;42.698;23.124;2023-04-03T05:12:41;4.07;;;2.30;;
7929;SDS011;4010;42.698;23.124;2023-04-03T05:15:10;6.13;;;3.20;;
7929;SDS011;4010;42.698;23.124;2023-04-03T05:17:36;5.90;;;3.57;;
7929;SDS011;4010;42.698;23.124;2023-04-03T05:20:03;3.83;;;2.87;;
7929;SDS011;4010;42.698;23.124;2023-04-03T05:22:31;4.47;;;3.10;;
7929;SDS011;4010;42.698;23.124;2023-04-03T05:24:58;3.47;;;2.83;;
7929;SDS011;4010;42.698;23.124;2023-04-03T05:27:25;4.13;;;3.00;;
7929;SDS011;4010;42.698;23.124;2023-04-03T05:29:53;4.07;;;3.10;;
7929;SDS011;4010;42.698;23.124;2023-04-03T05:32:21;4.37;;;3.00;;
7929;SDS011;4010;42.698;23.124;2023-04-03T05:34:48;3.90;;;3.00;;
7929;SDS011;4010;42.698;23.124;2023-04-03T05:37:14;3.87;;;2.70;;
7929;SDS011;4010;42.698;23.124;2023-04-03T05:39:41;3.27;;;2.87;;
7929;SDS011;4010;42.698;23.124;2023-04-03T05:42:08;4.37;;;3.13;;
7929;SDS011;4010;42.698;23.124;2023-04-03T05:44:36;3.67;;;3.20;;
7929;SDS011;4010;42.698;23.124;2023-04-03T05:47:03;8.33;;;4.83;;
7929;SDS011;4010;42.698;23.124;2023-04-03T05:49:31;19.43;;;10.67;;
7929;SDS011;4010;42.698;23.124;2023-04-03T05:51:58;6.93;;;4.27;;
7929;SDS011;4010;42.698;23.124;2023-04-03T05:54:26;8.10;;;5.50;;
7929;SDS011;4010;42.698;23.124;2023-04-03T05:56:53;5.23;;;2.87;;
7929;SDS011;4010;42.698;23.124;2023-04-03T05:59:20;7.17;;;4.40;;
7929;SDS011;4010;42.698;23.124;2023-04-03T06:01:47;5.60;;;3.73;;
7929;SDS011;4010;42.698;23.124;2023-04-03T06:04:15;5.33;;;2.53;;
7929;SDS011;4010;42.698;23.124;2023-04-03T06:06:44;5.40;;;2.40;;
7929;SDS011;4010;42.698;23.124;2023-04-03T06:09:12;4.73;;;3.83;;
7929;SDS011;4010;42.698;23.124;2023-04-03T06:11:39;5.30;;;3.70;;
7929;SDS011;4010;42.698;23.124;2023-04-03T06:14:07;4.77;;;2.60;;
7929;SDS011;4010;42.698;23.124;2023-04-03T06:16:34;5.03;;;2.93;;
7929;SDS011;4010;42.698;23.124;2023-04-03T06:19:00;3.07;;;2.77;;
7929;SDS011;4010;42.698;23.124;2023-04-03T06:21:27;3.13;;;2.60;;
7929;SDS011;4010;42.698;23.124;2023-04-03T06:23:56;6.50;;;3.30;;
7929;SDS011;4010;42.698;23.124;2023-04-03T06:26:23;3.30;;;2.23;;
7929;SDS011;4010;42.698;23.124;2023-04-03T06:28:50;5.07;;;2.30;;
7929;SDS011;4010;42.698;23.124;2023-04-03T06:31:16;3.20;;;2.03;;
7929;SDS011;4010;42.698;23.124;2023-04-03T06:33:43;1.93;;;1.50;;
7929;SDS011;4010;42.698;23.124;2023-04-03T06:36:10;1.70;;;1.53;;
7929;SDS011;4010;42.698;23.124;2023-04-03T06:38:38;5.40;;;1.90;;
7929;SDS011;4010;42.698;23.124;2023-04-03T06:41:06;1.73;;;1.60;;
7929;SDS011;4010;42.698;23.124;2023-04-03T06:43:33;2.37;;;1.93;;
7929;SDS011;4010;42.698;23.124;2023-04-03T06:46:00;2.47;;;1.73;;
7929;SDS011;4010;42.698;23.124;2023-04-03T06:48:26;2.50;;;2.10;;
7929;SDS011;4010;42.698;23.124;2023-04-03T06:50:54;2.80;;;2.13;;
7929;SDS011;4010;42.698;23.124;2023-04-03T06:53:20;2.20;;;2.00;;
7929;SDS011;4010;42.698;23.124;2023-04-03T06:55:47;2.70;;;1.73;;
7929;SDS011;4010;42.698;23.124;2023-04-03T06:58:15;1.60;;;1.50;;
7929;SDS011;4010;42.698;23.124;2023-04-03T07:00:43;2.10;;;1.80;;
7929;SDS011;4010;42.698;23.124;2023-04-03T07:03:10;1.90;;;1.50;;
7929;SDS011;4010;42.698;23.124;2023-04-03T07:05:36;1.90;;;1.70;;
7929;SDS011;4010;42.698;23.124;2023-04-03T07:08:03;2.27;;;1.50;;
7929;SDS011;4010;42.698;23.124;2023-04-03T07:10:30;1.47;;;1.37;;
7929;SDS011;4010;42.698;23.124;2023-04-03T07:12:57;2.73;;;1.50;;
7929;SDS011;4010;42.698;23.124;2023-04-03T07:15:25;1.70;;;1.60;;
7929;SDS011;4010;42.698;23.124;2023-04-03T07:17:52;2.23;;;1.73;;
7929;SDS011;4010;42.698;23.124;2023-04-03T07:20:18;2.07;;;1.50;;
7929;SDS011;4010;42.698;23.124;2023-04-03T07:22:45;1.90;;;1.70;;
7929;SDS011;4010;42.698;23.124;2023-04-03T07:25:12;2.00;;;1.80;;
7929;SDS011;4010;42.698;23.124;2023-04-03T07:27:38;2.23;;;1.90;;
7929;SDS011;4010;42.698;23.124;2023-04-03T07:30:05;1.67;;;1.50;;
7929;SDS011;4010;42.698;23.124;2023-04-03T07:32:35;2.60;;;1.77;;
7929;SDS011;4010;42.698;23.124;2023-04-03T07:35:02;1.50;;;1.40;;
7929;SDS011;4010;42.698;23.124;2023-04-03T07:37:29;1.73;;;1.60;;
7929;SDS011;4010;42.698;23.124;2023-04-03T07:39:57;3.43;;;2.13;;
7929;SDS011;4010;42.698;23.124;2023-04-03T07:42:25;1.60;;;1.50;;
7929;SDS011;4010;42.698;23.124;2023-04-03T07:44:52;3.57;;;1.67;;
7929;SDS011;4010;42.698;23.124;2023-04-03T07:47:19;1.67;;;1.57;;
7929;SDS011;4010;42.698;23.124;2023-04-03T07:49:48;2.10;;;1.87;;
7929;SDS011;4010;42.698;23.124;2023-04-03T07:52:16;2.97;;;1.77;;
7929;SDS011;4010;42.698;23.124;2023-04-03T07:54:42;2.10;;;1.80;;
7929;SDS011;4010;42.698;23.124;2023-04-03T07:57:09;1.70;;;1.53;;
7929;SDS011;4010;42.698;23.124;2023-04-03T07:59:36;2.20;;;1.63;;
7929;SDS011;4010;42.698;23.124;2023-04-03T08:02:04;3.63;;;1.40;;
7929;SDS011;4010;42.698;23.124;2023-04-03T08:04:31;1.67;;;1.57;;
7929;SDS011;4010;42.698;23.124;2023-04-03T08:06:59;2.83;;;1.70;;
7929;SDS011;4010;42.698;23.124;2023-04-03T08:09:26;1.70;;;1.57;;
7929;SDS011;4010;42.698;23.124;2023-04-03T08:11:53;3.27;;;1.50;;
7929;SDS011;4010;42.698;23.124;2023-04-03T08:14:19;2.57;;;1.70;;
7929;SDS011;4010;42.698;23.124;2023-04-03T08:16:47;1.60;;;1.43;;
7929;SDS011;4010;42.698;23.124;2023-04-03T08:19:15;1.30;;;1.13;;
7929;SDS011;4010;42.698;23.124;2023-04-03T08:21:43;3.97;;;1.50;;
7929;SDS011;4010;42.698;23.124;2023-04-03T08:24:11;1.27;;;1.10;;
7929;SDS011;4010;42.698;23.124;2023-04-03T08:26:38;1.43;;;1.33;;
7929;SDS011;4010;42.698;23.124;2023-04-03T08:29:05;2.47;;;1.53;;
7929;SDS011;4010;42.698;23.124;2023-04-03T08:31:31;1.57;;;1.30;;
7929;SDS011;4010;42.698;23.124;2023-04-03T08:33:58;2.37;;;1.30;;
7929;SDS011;4010;42.698;23.124;2023-04-03T08:36:26;1.50;;;1.40;;
7929;SDS011;4010;42.698;23.124;2023-04-03T08:38:54;1.33;;;1.23;;
7929;SDS011;4010;42.698;23.124;2023-04-03T08:41:27;2.60;;;1.20;;
7929;SDS011;4010;42.698;23.124;2023-04-03T08:43:59;1.50;;;1.27;;
7929;SDS011;4010;42.698;23.124;2023-04-03T08:46:34;1.57;;;1.13;;
7929;SDS011;4010;42.698;23.124;2023-04-03T08:49:14;1.50;;;1.40;;
7929;SDS011;4010;42.698;23.124;2023-04-03T08:51:49;1.60;;;1.50;;
7929;SDS011;4010;42.698;23.124;2023-04-03T08:54:20;3.60;;;1.60;;
7929;SDS011;4010;42.698;23.124;2023-04-03T08:56:52;1.67;;;1.43;;
7929;SDS011;4010;42.698;23.124;2023-04-03T08:59:21;1.63;;;1.30;;
7929;SDS011;4010;42.698;23.124;2023-04-03T09:01:54;1.73;;;1.20;;
7929;SDS011;4010;42.698;23.124;2023-04-03T09:04:22;1.53;;;1.43;;
7929;SDS011;4010;42.698;23.124;2023-04-03T09:06:49;3.03;;;1.53;;
7929;SDS011;4010;42.698;23.124;2023-04-03T09:09:24;1.60;;;1.50;;
7929;SDS011;4010;42.698;23.124;2023-04-03T09:12:03;2.07;;;1.33;;
7929;SDS011;4010;42.698;23.124;2023-04-03T09:14:37;3.33;;;1.60;;
7929;SDS011;4010;42.698;23.124;2023-04-03T09:17:11;2.80;;;1.40;;
7929;SDS011;4010;42.698;23.124;2023-04-03T09:19:45;1.60;;;1.50;;
7929;SDS011;4010;42.698;23.124;2023-04-03T09:22:20;1.67;;;1.57;;
7929;SDS011;4010;42.698;23.124;2023-04-03T09:24:49;2.97;;;2.07;;
7929;SDS011;4010;42.698;23.124;2023-04-03T09:27:24;2.10;;;1.90;;
7929;SDS011;4010;42.698;23.124;2023-04-03T09:29:52;3.07;;;2.37;;
7929;SDS011;4010;42.698;23.124;2023-04-03T09:32:22;3.90;;;2.50;;
7929;SDS011;4010;42.698;23.124;2023-04-03T09:34:53;2.73;;;2.50;;
7929;SDS011;4010;42.698;23.124;2023-04-03T09:37:34;3.73;;;3.17;;
7929;SDS011;4010;42.698;23.124;2023-04-03T09:40:04;4.00;;;2.87;;
7929;SDS011;4010;42.698;23.124;2023-04-03T09:42:45;5.67;;;2.70;;
7929;SDS011;4010;42.698;23.124;2023-04-03T09:45:21;4.50;;;2.67;;
7929;SDS011;4010;42.698;23.124;2023-04-03T09:47:52;2.83;;;2.53;;
7929;SDS011;4010;42.698;23.124;2023-04-03T09:50:32;5.50;;;2.67;;
7929;SDS011;4010;42.698;23.124;2023-04-03T09:53:02;3.57;;;3.07;;
7929;SDS011;4010;42.698;23.124;2023-04-03T09:55:32;5.17;;;3.03;;
7929;SDS011;4010;42.698;23.124;2023-04-03T09:58:24;7.30;;;3.60;;
7929;SDS011;4010;42.698;23.124;2023-04-03T10:00:56;4.03;;;2.80;;
7929;SDS011;4010;42.698;23.124;2023-04-03T10:03:25;7.77;;;3.00;;
7929;SDS011;4010;42.698;23.124;2023-04-03T10:05:56;5.47;;;3.90;;
7929;SDS011;4010;42.698;23.124;2023-04-03T10:08:24;4.77;;;3.20;;
7929;SDS011;4010;42.698;23.124;2023-04-03T10:11:13;5.47;;;3.23;;
7929;SDS011;4010;42.698;23.124;2023-04-03T10:16:32;7.50;;;4.73;;
7929;SDS011;4010;42.698;23.124;2023-04-03T10:19:18;4.13;;;3.20;;
7929;SDS011;4010;42.698;23.124;2023-04-03T10:21:58;3.30;;;2.67;;
7929;SDS011;4010;42.698;23.124;2023-04-03T10:24:30;3.10;;;2.70;;
7929;SDS011;4010;42.698;23.124;2023-04-03T10:27:03;3.20;;;2.87;;
7929;SDS011;4010;42.698;23.124;2023-04-03T10:29:40;3.90;;;2.80;;
7929;SDS011;4010;42.698;23.124;2023-04-03T10:32:19;7.47;;;3.37;;
7929;SDS011;4010;42.698;23.124;2023-04-03T10:35:06;5.63;;;3.50;;
7929;SDS011;4010;42.698;23.124;2023-04-03T10:37:44;4.53;;;3.40;;
7929;SDS011;4010;42.698;23.124;2023-04-03T10:40:22;4.63;;;3.80;;
7929;SDS011;4010;42.698;23.124;2023-04-03T10:42:57;5.60;;;4.20;;
7929;SDS011;4010;42.698;23.124;2023-04-03T10:45:34;10.43;;;4.73;;
7929;SDS011;4010;42.698;23.124;2023-04-03T10:48:16;10.30;;;4.77;;
7929;SDS011;4010;42.698;23.124;2023-04-03T10:50:52;6.27;;;4.17;;
7929;SDS011;4010;42.698;23.124;2023-04-03T10:53:24;7.40;;;4.47;;
7929;SDS011;4010;42.698;23.124;2023-04-03T10:56:01;8.03;;;3.70;;
7929;SDS011;4010;42.698;23.124;2023-04-03T10:58:34;8.43;;;3.93;;
7929;SDS011;4010;42.698;23.124;2023-04-03T11:01:07;5.70;;;4.20;;
7929;SDS011;4010;42.698;23.124;2023-04-03T11:03:38;6.47;;;4.20;;
7929;SDS011;4010;42.698;23.124;2023-04-03T11:06:09;4.57;;;3.50;;
7929;SDS011;4010;42.698;23.124;2023-04-03T11:08:38;2.77;;;2.50;;
7929;SDS011;4010;42.698;23.124;2023-04-03T11:11:11;3.73;;;2.57;;
7929;SDS011;4010;42.698;23.124;2023-04-03T11:13:43;3.10;;;2.70;;
7929;SDS011;4010;42.698;23.124;2023-04-03T11:16:18;5.40;;;2.80;;
7929;SDS011;4010;42.698;23.124;2023-04-03T11:18:51;6.07;;;2.97;;
7929;SDS011;4010;42.698;23.124;2023-04-03T11:21:23;5.87;;;2.83;;
7929;SDS011;4010;42.698;23.124;2023-04-03T11:23:56;3.67;;;2.43;;
7929;SDS011;4010;42.698;23.124;2023-04-03T11:26:24;2.60;;;2.33;;
7929;SDS011;4010;42.698;23.124;2023-04-03T11:28:56;3.20;;;1.70;;
7929;SDS011;4010;42.698;23.124;2023-04-03T11:31:32;3.23;;;2.37;;
7929;SDS011;4010;42.698;23.124;2023-04-03T11:34:08;2.27;;;2.00;;
7929;SDS011;4010;42.698;23.124;2023-04-03T11:36:48;2.23;;;2.03;;
7929;SDS011;4010;42.698;23.124;2023-04-03T11:39:20;3.90;;;2.07;;
7929;SDS011;4010;42.698;23.124;2023-04-03T11:41:50;3.83;;;1.90;;
7929;SDS011;4010;42.698;23.124;2023-04-03T11:44:29;2.63;;;2.07;;
7929;SDS011;4010;42.698;23.124;2023-04-03T11:47:01;3.37;;;2.00;;
7929;SDS011;4010;42.698;23.124;2023-04-03T11:58:25;1.30;;;1.20;;
7929;SDS011;4010;42.698;23.124;2023-04-03T12:00:57;1.90;;;1.77;;
7929;SDS011;4010;42.698;23.124;2023-04-03T12:12:55;2.13;;;1.93;;
7929;SDS011;4010;42.698;23.124;2023-04-03T12:21:10;2.73;;;2.30;;
7929;SDS011;4010;42.698;23.124;2023-04-03T12:26:30;3.37;;;2.60;;
7929;SDS011;4010;42.698;23.124;2023-04-03T12:29:02;2.97;;;2.67;;
7929;SDS011;4010;42.698;23.124;2023-04-03T12:31:41;2.23;;;2.07;;
7929;SDS011;4010;42.698;23.124;2023-04-03T12:34:24;2.03;;;1.93;;
7929;SDS011;4010;42.698;23.124;2023-04-03T12:37:07;2.27;;;2.07;;
7929;SDS011;4010;42.698;23.124;2023-04-03T12:39:58;3.40;;;1.97;;
7929;SDS011;4010;42.698;23.124;2023-04-03T12:42:45;2.50;;;1.80;;
7929;SDS011;4010;42.698;23.124;2023-04-03T12:45:29;2.30;;;2.10;;
7929;SDS011;4010;42.698;23.124;2023-04-03T12:48:08;2.63;;;2.43;;
7929;SDS011;4010;42.698;23.124;2023-04-03T12:50:43;3.07;;;2.57;;
7929;SDS011;4010;42.698;23.124;2023-04-03T12:53:12;4.67;;;2.50;;
7929;SDS011;4010;42.698;23.124;2023-04-03T12:55:43;3.83;;;2.70;;
7929;SDS011;4010;42.698;23.124;2023-04-03T12:58:13;2.57;;;2.30;;
7929;SDS011;4010;42.698;23.124;2023-04-03T13:00:41;3.70;;;3.00;;
7929;SDS011;4010;42.698;23.124;2023-04-03T13:03:18;3.27;;;2.27;;
7929;SDS011;4010;42.698;23.124;2023-04-03T13:05:48;3.17;;;2.77;;
7929;SDS011;4010;42.698;23.124;2023-04-03T13:08:15;3.67;;;2.80;;
7929;SDS011;4010;42.698;23.124;2023-04-03T13:10:56;3.40;;;2.60;;
7929;SDS011;4010;42.698;23.124;2023-04-03T13:13:27;4.67;;;2.83;;
7929;SDS011;4010;42.698;23.124;2023-04-03T13:15:55;3.63;;;2.27;;
7929;SDS011;4010;42.698;23.124;2023-04-03T13:18:23;2.93;;;2.53;;
7929;SDS011;4010;42.698;23.124;2023-04-03T13:20:52;2.00;;;1.90;;
7929;SDS011;4010;42.698;23.124;2023-04-03T13:23:23;2.97;;;2.40;;
7929;SDS011;4010;42.698;23.124;2023-04-03T13:25:50;2.50;;;2.30;;
7929;SDS011;4010;42.698;23.124;2023-04-03T13:28:19;3.13;;;2.47;;
7929;SDS011;4010;42.698;23.124;2023-04-03T13:30:56;1.73;;;1.63;;
7929;SDS011;4010;42.698;23.124;2023-04-03T13:33:28;2.97;;;2.20;;
7929;SDS011;4010;42.698;23.124;2023-04-03T13:35:58;3.17;;;2.97;;
7929;SDS011;4010;42.698;23.124;2023-04-03T13:38:29;3.60;;;3.30;;
7929;SDS011;4010;42.698;23.124;2023-04-03T13:40:59;2.97;;;2.67;;
7929;SDS011;4010;42.698;23.124;2023-04-03T13:43:30;2.40;;;2.20;;
7929;SDS011;4010;42.698;23.124;2023-04-03T13:46:00;2.90;;;2.50;;
7929;SDS011;4010;42.698;23.124;2023-04-03T13:48:34;3.57;;;2.87;;
7929;SDS011;4010;42.698;23.124;2023-04-03T13:51:03;5.67;;;3.43;;
7929;SDS011;4010;42.698;23.124;2023-04-03T13:53:32;4.20;;;3.00;;
7929;SDS011;4010;42.698;23.124;2023-04-03T13:56:05;3.77;;;2.93;;
7929;SDS011;4010;42.698;23.124;2023-04-03T13:58:35;3.63;;;2.83;;
7929;SDS011;4010;42.698;23.124;2023-04-03T14:01:07;4.73;;;2.50;;
7929;SDS011;4010;42.698;23.124;2023-04-03T14:03:38;3.50;;;3.20;;
7929;SDS011;4010;42.698;23.124;2023-04-03T14:06:09;3.53;;;3.23;;
7929;SDS011;4010;42.698;23.124;2023-04-03T14:08:37;3.73;;;3.10;;
7929;SDS011;4010;42.698;23.124;2023-04-03T14:11:04;3.83;;;3.17;;
7929;SDS011;4010;42.698;23.124;2023-04-03T14:13:32;3.37;;;2.40;;
7929;SDS011;4010;42.698;23.124;2023-04-03T14:16:00;8.63;;;3.13;;
7929;SDS011;4010;42.698;23.124;2023-04-03T14:18:27;3.60;;;2.97;;
7929;SDS011;4010;42.698;23.124;2023-04-03T14:20:54;4.20;;;2.67;;
7929;SDS011;4010;42.698;23.124;2023-04-03T14:23:21;7.60;;;2.90;;
7929;SDS011;4010;42.698;23.124;2023-04-03T14:25:47;3.87;;;3.23;;
7929;SDS011;4010;42.698;23.124;2023-04-03T14:28:15;3.50;;;3.03;;
7929;SDS011;4010;42.698;23.124;2023-04-03T14:30:47;3.97;;;3.57;;
7929;SDS011;4010;42.698;23.124;2023-04-03T14:33:17;3.50;;;3.20;;
7929;SDS011;4010;42.698;23.124;2023-04-03T14:35:45;3.10;;;2.80;;
7929;SDS011;4010;42.698;23.124;2023-04-03T14:38:21;4.03;;;3.27;;
7929;SDS011;4010;42.698;23.124;2023-04-03T14:40:51;3.30;;;2.87;;
7929;SDS011;4010;42.698;23.124;2023-04-03T14:43:18;3.00;;;2.67;;
7929;SDS011;4010;42.698;23.124;2023-04-03T14:45:47;4.63;;;4.07;;
7929;SDS011;4010;42.698;23.124;2023-04-03T14:48:15;4.83;;;3.77;;
7929;SDS011;4010;42.698;23.124;2023-04-03T14:50:45;9.40;;;6.73;;
7929;SDS011;4010;42.698;23.124;2023-04-03T14:53:12;5.07;;;3.87;;
7929;SDS011;4010;42.698;23.124;2023-04-03T14:55:40;4.00;;;3.50;;
7929;SDS011;4010;42.698;23.124;2023-04-03T14:58:11;4.53;;;4.13;;
7929;SDS011;4010;42.698;23.124;2023-04-03T15:00:39;4.20;;;3.50;;
7929;SDS011;4010;42.698;23.124;2023-04-03T15:03:10;4.07;;;2.63;;
7929;SDS011;4010;42.698;23.124;2023-04-03T15:05:39;4.57;;;3.23;;
7929;SDS011;4010;42.698;23.124;2023-04-03T15:08:08;5.87;;;4.13;;
7929;SDS011;4010;42.698;23.124;2023-04-03T15:10:44;3.77;;;3.23;;
7929;SDS011;4010;42.698;23.124;2023-04-03T15:13:11;4.03;;;3.10;;
7929;SDS011;4010;42.698;23.124;2023-04-03T15:15:38;6.37;;;3.37;;
7929;SDS011;4010;42.698;23.124;2023-04-03T15:18:05;2.90;;;2.70;;
7929;SDS011;4010;42.698;23.124;2023-04-03T15:20:34;4.10;;;3.07;;
7929;SDS011;4010;42.698;23.124;2023-04-03T15:23:00;2.93;;;2.40;;
7929;SDS011;4010;42.698;23.124;2023-04-03T15:25:27;3.03;;;2.73;;
7929;SDS011;4010;42.698;23.124;2023-04-03T15:27:56;3.87;;;3.20;;
7929;SDS011;4010;42.698;23.124;2023-04-03T15:30:23;4.17;;;3.43;;
7929;SDS011;4010;42.698;23.124;2023-04-03T15:32:50;3.07;;;2.77;;
7929;SDS011;4010;42.698;23.124;2023-04-03T15:35:18;3.00;;;2.70;;
7929;SDS011;4010;42.698;23.124;2023-04-03T15:37:46;3.47;;;3.17;;
7929;SDS011;4010;42.698;23.124;2023-04-03T15:40:14;3.70;;;2.93;;
7929;SDS011;4010;42.698;23.124;2023-04-03T15:42:41;3.87;;;3.03;;
7929;SDS011;4010;42.698;23.124;2023-04-03T15:45:08;3.10;;;2.40;;
7929;SDS011;4010;42.698;23.124;2023-04-03T15:47:35;3.80;;;3.10;;